Time;durP1;ratioP1;P1;durP2;ratioP2;P2;SDS_P1;SDS_P2;PMS_P1;PMS_P2;Temp;Humidity;BMP_temperature;BMP_pressure;BME280_temperature;BME280_humidity;BME280_pressure;Samples;Min_cycle;Max_cycle;Signal;HPM_P1;HPM_P2
2023/04/27 00:02:07;;;;;;;4.03;0.80;;;;;;;14.35;38.49;94352.66;4999179;28;20030;-89
2023/04/27 00:04:32;;;;;;;2.45;0.80;;;;;;;14.40;40.32;94359.72;4983054;28;20030;-89
2023/04/27 00:07:06;;;;;;;1.27;0.80;;;;;;;14.65;38.41;94355.81;4999147;28;20109;-89
2023/04/27 00:09:31;;;;;;;5.78;1.17;;;;;;;14.47;40.43;94348.78;4999241;28;20033;-88
2023/04/27 00:11:57;;;;;;;4.20;0.82;;;;;;;14.26;40.31;94346.50;4998962;28;20121;-88
2023/04/27 00:14:22;;;;;;;5.95;1.15;;;;;;;13.95;37.81;94353.09;4998571;28;20125;-89
2023/04/27 00:16:48;;;;;;;6.20;1.08;;;;;;;14.06;40.54;94351.06;5000004;28;20026;-89
2023/04/27 00:19:14;;;;;;;2.53;1.05;;;;;;;14.27;37.08;94335.69;4982060;28;20034;-88
2023/04/27 00:21:39;;;;;;;6.70;1.20;;;;;;;14.28;36.79;94344.38;4985357;28;20129;-89
2023/04/27 00:24:05;;;;;;;1.27;0.90;;;;;;;14.36;36.73;94346.31;5007146;28;20418;-89
2023/04/27 00:26:30;;;;;;;2.50;0.90;;;;;;;14.41;36.37;94335.69;5001724;28;20033;-89
2023/04/27 00:28:56;;;;;;;3.20;1.00;;;;;;;14.42;37.27;94337.25;5003078;28;20030;-89
2023/04/27 00:31:21;;;;;;;2.75;0.93;;;;;;;14.51;37.08;94334.72;5015705;28;20072;-89
2023/04/27 00:33:46;;;;;;;1.58;0.80;;;;;;;14.45;36.90;94332.47;5014372;28;20036;-89
2023/04/27 00:36:12;;;;;;;2.28;0.80;;;;;;;14.29;37.47;94335.41;4994382;28;20041;-89
2023/04/27 00:38:37;;;;;;;3.58;1.00;;;;;;;14.39;37.02;94327.28;4997414;28;20317;-89
2023/04/27 00:41:04;;;;;;;2.33;0.90;;;;;;;14.48;37.46;94335.28;4981097;28;20309;-89
2023/04/27 00:43:30;;;;;;;2.13;0.85;;;;;;;14.46;37.50;94334.03;4997303;28;20026;-89
2023/04/27 00:45:55;;;;;;;3.00;1.10;;;;;;;14.44;37.22;94334.31;4997166;28;20026;-89
2023/04/27 00:48:21;;;;;;;2.22;1.02;;;;;;;14.22;37.97;94333.13;4981356;28;20022;-89
2023/04/27 00:50:47;;;;;;;6.80;1.13;;;;;;;13.93;38.66;94336.78;5010048;28;20343;-89
2023/04/27 00:53:13;;;;;;;3.65;0.90;;;;;;;14.21;38.29;94328.94;4996874;28;20030;-90
2023/04/27 00:55:39;;;;;;;1.48;0.80;;;;;;;14.31;38.29;94324.53;4996917;28;20030;-89
2023/04/27 00:58:04;;;;;;;2.65;0.73;;;;;;;14.33;38.12;94332.94;4997742;28;20026;-90
2023/04/27 01:00:30;;;;;;;2.45;1.10;;;;;;;14.30;39.12;94334.31;4980916;28;20026;-89
2023/04/27 01:02:55;;;;;;;2.28;0.88;;;;;;;14.21;39.56;94328.16;4997369;28;20395;-88
2023/04/27 01:05:21;;;;;;;2.67;1.20;;;;;;;14.42;39.99;94334.63;4997140;28;20415;-89
2023/04/27 01:07:47;;;;;;;2.25;1.10;;;;;;;14.59;39.76;94340.38;4980993;28;20023;-89
2023/04/27 01:10:12;;;;;;;4.97;1.05;;;;;;;14.81;38.75;94347.63;4996968;28;20058;-89
2023/04/27 01:12:38;;;;;;;3.33;0.80;;;;;;;14.65;38.29;94341.88;4996953;28;20026;-88
2023/04/27 01:15:06;;;;;;;1.55;1.02;;;;;;;15.06;37.78;94338.44;4996951;28;20040;-89
2023/04/27 01:17:31;;;;;;;4.88;1.33;;;;;;;14.91;38.26;94336.09;4998094;28;20044;-89
2023/04/27 01:19:58;;;;;;;11.20;1.40;;;;;;;14.56;38.61;94332.00;4955901;28;1219005;-89
2023/04/27 01:22:24;;;;;;;4.32;1.17;;;;;;;14.78;39.27;94327.13;4997745;28;20340;-89
2023/04/27 01:24:49;;;;;;;2.35;0.80;;;;;;;14.68;37.55;94336.75;4997746;28;20041;-89
2023/04/27 01:27:14;;;;;;;5.53;1.05;;;;;;;14.55;39.06;94338.34;4998016;28;20030;-89
2023/04/27 01:29:40;;;;;;;6.72;0.98;;;;;;;14.63;38.84;94334.22;4998611;28;20034;-89
2023/04/27 01:32:05;;;;;;;3.67;1.08;;;;;;;14.48;38.28;94330.03;4997500;28;20034;-90
2023/04/27 01:34:31;;;;;;;1.92;1.00;;;;;;;14.48;38.53;94334.53;4997228;28;20041;-89
2023/04/27 01:36:56;;;;;;;1.50;0.90;;;;;;;14.58;39.06;94339.63;4997356;28;20038;-89
2023/04/27 01:39:22;;;;;;;1.55;0.98;;;;;;;14.47;39.87;94338.25;4997177;28;20079;-89
2023/04/27 01:41:47;;;;;;;1.30;1.00;;;;;;;14.24;37.83;94340.75;4997442;28;20455;-89
2023/04/27 01:44:12;;;;;;;3.42;0.65;;;;;;;14.21;38.41;94336.06;4997344;28;20038;-89
2023/04/27 01:46:38;;;;;;;10.18;1.02;;;;;;;14.15;39.14;94345.91;4997250;28;20026;-89
2023/04/27 01:49:03;;;;;;;2.08;0.95;;;;;;;14.25;38.79;94348.38;4996908;28;20034;-89
2023/04/27 01:51:29;;;;;;;1.63;0.90;;;;;;;14.12;38.91;94351.75;4997388;28;20436;-89
2023/04/27 01:53:55;;;;;;;2.00;0.90;;;;;;;14.05;40.02;94348.69;4998337;28;20321;-89
2023/04/27 01:56:20;;;;;;;5.30;1.40;;;;;;;14.09;37.73;94350.47;4997093;28;20113;-89
2023/04/27 01:58:46;;;;;;;3.00;0.82;;;;;;;14.30;37.84;94336.97;4996951;28;20436;-89
2023/04/27 02:01:11;;;;;;;1.58;1.00;;;;;;;13.98;38.17;94341.16;4997327;28;20034;-89
2023/04/27 02:03:36;;;;;;;1.70;0.88;;;;;;;14.05;37.57;94340.78;4998146;28;20030;-89
2023/04/27 02:06:02;;;;;;;3.40;1.08;;;;;;;14.28;37.40;94342.50;4996953;28;20109;-89
2023/04/27 02:08:27;;;;;;;4.07;1.08;;;;;;;14.43;37.08;94345.94;4996783;28;20034;-89
2023/04/27 02:10:53;;;;;;;2.83;0.90;;;;;;;14.26;37.33;94347.28;4980864;28;20045;-89
2023/04/27 02:13:18;;;;;;;3.70;1.38;;;;;;;14.00;38.89;94347.72;4996792;28;20125;-89
2023/04/27 02:15:43;;;;;;;2.30;1.13;;;;;;;14.01;38.93;94348.50;4980685;28;20072;-89
2023/04/27 02:18:09;;;;;;;3.20;1.10;;;;;;;14.17;38.07;94350.88;4996572;28;20454;-89
2023/04/27 02:20:34;;;;;;;5.22;1.05;;;;;;;13.90;38.32;94347.13;4996775;28;20080;-89
2023/04/27 02:23:01;;;;;;;5.40;0.85;;;;;;;14.08;38.09;94350.78;4980718;28;20391;-90
2023/04/27 02:25:26;;;;;;;2.25;1.17;;;;;;;14.08;38.33;94350.78;4980440;28;20086;-90
2023/04/27 02:27:52;;;;;;;7.40;0.90;;;;;;;13.98;37.73;94339.34;4996425;28;20122;-88
2023/04/27 02:30:17;;;;;;;2.50;1.00;;;;;;;13.90;38.98;94344.47;4980618;28;20030;-89
2023/04/27 02:32:43;;;;;;;5.80;1.20;;;;;;;14.07;38.28;94347.34;4996780;28;20092;-89
2023/04/27 02:35:09;;;;;;;5.15;1.02;;;;;;;13.65;39.35;94341.97;4996571;28;20042;-89
2023/04/27 02:37:34;;;;;;;2.63;0.90;;;;;;;13.91;38.57;94357.34;4996299;28;20038;-89
2023/04/27 02:40:00;;;;;;;3.25;0.93;;;;;;;13.92;39.23;94348.41;4996352;28;20476;-89
2023/04/27 02:42:25;;;;;;;3.83;1.10;;;;;;;13.83;38.61;94356.16;4980413;28;20085;-89
2023/04/27 02:44:51;;;;;;;5.60;1.10;;;;;;;14.10;37.72;94361.81;4980476;28;20041;-89
2023/04/27 02:47:16;;;;;;;5.00;1.20;;;;;;;13.62;38.38;94357.53;4999392;28;20378;-89
2023/04/27 02:49:42;;;;;;;4.45;1.20;;;;;;;14.19;37.82;94365.31;4993305;28;20129;-89
2023/04/27 02:52:08;;;;;;;2.28;0.82;;;;;;;14.18;37.31;94369.03;4987794;28;20041;-89
2023/04/27 02:54:34;;;;;;;8.13;1.30;;;;;;;14.32;36.98;94363.00;4980079;28;20352;-89
2023/04/27 02:57:00;;;;;;;1.80;0.68;;;;;;;14.26;37.34;94355.19;4980235;28;20048;-89
2023/04/27 02:59:26;;;;;;;1.55;0.82;;;;;;;14.31;37.41;94361.44;4980137;28;20033;-89
2023/04/27 03:01:51;;;;;;;3.20;1.00;;;;;;;14.13;37.70;94366.50;4996290;28;20084;-89
2023/04/27 03:04:17;;;;;;;3.95;1.15;;;;;;;14.05;38.23;94367.94;4980308;28;20122;-89
2023/04/27 03:06:46;;;;;;;2.25;0.90;;;;;;;13.98;38.77;94370.13;4995892;28;20030;-90
2023/04/27 03:09:11;;;;;;;4.32;1.02;;;;;;;13.54;40.22;94372.91;4996159;28;20022;-88
2023/04/27 03:11:40;;;;;;;3.55;1.15;;;;;;;13.67;39.13;94371.41;4996684;28;20617;-89
2023/04/27 03:14:06;;;;;;;3.35;1.00;;;;;;;13.68;38.99;94369.56;4980007;28;20383;-89
2023/04/27 03:16:32;;;;;;;3.67;0.95;;;;;;;13.68;38.57;94367.72;4980031;28;20040;-89
2023/04/27 03:18:58;;;;;;;4.38;1.27;;;;;;;13.45;39.94;94374.63;4995888;28;20137;-90
2023/04/27 03:21:23;;;;;;;2.50;0.93;;;;;;;13.70;39.89;94378.75;4997260;28;20137;-89
2023/04/27 03:23:48;;;;;;;1.30;0.80;;;;;;;13.64;39.74;94379.91;4995952;28;20050;-89
2023/04/27 03:26:14;;;;;;;2.35;0.90;;;;;;;13.59;38.38;94379.19;4996013;28;20034;-89
2023/04/27 03:28:40;;;;;;;3.17;0.70;;;;;;;13.79;38.82;94380.72;4979902;28;20034;-89
2023/04/27 03:31:11;;;;;;;2.53;0.90;;;;;;;13.79;39.55;94378.09;4996289;28;20507;-89
2023/04/27 03:33:37;;;;;;;2.33;1.23;;;;;;;13.71;39.01;94372.41;4995900;28;20026;-89
2023/04/27 03:36:03;;;;;;;1.67;0.70;;;;;;;13.61;38.72;94372.53;4979701;28;20127;-89
2023/04/27 03:38:30;;;;;;;3.22;1.05;;;;;;;13.71;38.21;94377.66;4995838;28;20447;-89
2023/04/27 03:40:56;;;;;;;1.83;0.90;;;;;;;13.82;37.90;94377.53;4995640;28;20069;-89
2023/04/27 03:43:21;;;;;;;2.03;1.00;;;;;;;13.90;38.86;94383.97;4995624;28;20124;-89
2023/04/27 03:45:47;;;;;;;4.28;1.00;;;;;;;13.74;38.22;94388.69;4996181;28;20066;-89
2023/04/27 03:48:13;;;;;;;2.17;1.17;;;;;;;13.89;37.76;94385.06;4979819;28;20033;-89
2023/04/27 03:50:39;;;;;;;7.75;1.20;;;;;;;13.82;38.03;94382.78;4981909;28;20038;-88
2023/04/27 03:53:04;;;;;;;3.33;0.98;;;;;;;13.71;38.94;94384.81;4983460;28;20428;-89
2023/04/27 03:55:30;;;;;;;2.65;0.80;;;;;;;13.65;39.40;94389.34;4983385;28;20038;-89
2023/04/27 03:57:55;;;;;;;3.38;0.93;;;;;;;13.66;38.19;94398.03;4983195;28;20041;-89
2023/04/27 04:00:21;;;;;;;3.47;1.30;;;;;;;13.73;37.89;94393.19;4999337;28;20030;-89
2023/04/27 04:02:47;;;;;;;2.70;1.10;;;;;;;13.83;38.08;94395.66;4983228;28;20034;-89
2023/04/27 04:05:14;;;;;;;6.13;1.42;;;;;;;13.39;40.67;94396.78;4999050;28;20040;-89
2023/04/27 04:07:40;;;;;;;7.32;1.48;;;;;;;13.66;40.16;94403.28;4983355;28;20126;-89
2023/04/27 04:10:06;;;;;;;5.68;1.08;;;;;;;13.56;39.15;94401.59;5000168;28;20037;-89
2023/04/27 04:12:32;;;;;;;4.78;1.00;;;;;;;13.62;38.74;94404.94;4999831;28;20037;-89
2023/04/27 04:14:57;;;;;;;2.80;0.95;;;;;;;13.42;39.77;94397.00;4999117;28;20344;-89
2023/04/27 04:17:23;;;;;;;1.73;0.95;;;;;;;13.28;40.58;94402.19;4999194;28;20233;-90
2023/04/27 04:19:48;;;;;;;6.07;1.15;;;;;;;13.25;41.08;94409.84;4982471;28;20038;-89
2023/04/27 04:22:13;;;;;;;2.15;1.00;;;;;;;13.35;39.46;94406.31;4998742;28;20033;-88
2023/04/27 04:24:39;;;;;;;4.43;0.70;;;;;;;13.45;40.16;94410.69;5005536;28;20037;-88
2023/04/27 04:27:32;;;;;;;4.00;1.17;;;;;;;13.81;39.85;94413.59;5003880;28;20113;-89
2023/04/27 04:29:59;;;;;;;2.88;1.00;;;;;;;13.60;39.18;94410.47;5015257;28;20398;-89
2023/04/27 04:32:27;;;;;;;4.45;1.08;;;;;;;13.52;38.79;94413.75;4985635;28;20049;-88
2023/04/27 04:34:53;;;;;;;4.38;1.13;;;;;;;13.57;39.47;94408.41;5014675;28;20030;-89
2023/04/27 04:37:18;;;;;;;2.33;1.10;;;;;;;13.71;38.98;94413.75;4998498;28;20125;-89
2023/04/27 04:39:44;;;;;;;3.35;1.08;;;;;;;13.91;37.89;94410.00;5014701;28;20041;-89
2023/04/27 04:42:09;;;;;;;1.83;0.80;;;;;;;14.02;38.40;94407.22;5014873;28;20034;-88
2023/04/27 04:44:35;;;;;;;1.85;0.90;;;;;;;14.05;37.78;94414.56;5014729;28;20041;-88
2023/04/27 04:47:01;;;;;;;4.78;1.25;;;;;;;14.00;38.43;94412.81;5014736;28;20345;-89
2023/04/27 04:49:27;;;;;;;2.50;0.80;;;;;;;14.19;37.25;94418.00;4993079;28;20038;-87
2023/04/27 04:51:52;;;;;;;4.75;1.15;;;;;;;14.41;37.81;94424.53;4998304;28;20359;-87
2023/04/27 04:54:18;;;;;;;3.45;1.20;;;;;;;14.35;38.18;94425.69;4998345;28;20030;-86
2023/04/27 04:56:44;;;;;;;3.40;1.13;;;;;;;13.78;41.25;94423.94;4998257;28;20030;-88
2023/04/27 04:59:10;;;;;;;6.60;1.25;;;;;;;13.33;44.25;94430.25;4998374;28;20034;-87
2023/04/27 05:01:35;;;;;;;4.68;1.13;;;;;;;13.43;42.73;94437.28;4997012;28;20030;-87
2023/04/27 05:04:01;;;;;;;4.18;0.95;;;;;;;13.87;41.05;94445.91;4998200;28;20042;-88
2023/04/27 05:06:26;;;;;;;3.45;1.00;;;;;;;14.06;40.25;94437.19;4982015;28;20068;-88
2023/04/27 05:08:52;;;;;;;1.63;0.98;;;;;;;14.28;39.98;94434.75;4997954;28;20423;-88
2023/04/27 05:11:17;;;;;;;2.45;1.17;;;;;;;14.55;41.40;94446.44;4983885;28;20120;-88
2023/04/27 05:13:42;;;;;;;8.55;2.55;;;;;;;14.34;42.22;94442.56;4997604;28;20038;-88
2023/04/27 05:16:08;;;;;;;3.55;1.40;;;;;;;14.58;39.89;94447.72;4997794;28;20349;-88
2023/04/27 05:18:34;;;;;;;7.80;1.10;;;;;;;14.63;43.59;94446.81;4981543;28;20045;-89
2023/04/27 05:21:00;;;;;;;2.65;1.00;;;;;;;14.55;43.26;94450.91;4981955;28;20124;-89
2023/04/27 05:23:26;;;;;;;4.10;1.20;;;;;;;14.76;43.76;94456.63;4981719;28;20076;-89
2023/04/27 05:25:52;;;;;;;2.95;1.00;;;;;;;14.83;42.99;94451.78;5014287;28;20034;-89
2023/04/27 05:28:17;;;;;;;1.58;0.90;;;;;;;15.06;42.47;94443.97;4990340;28;20030;-89
2023/04/27 05:30:43;;;;;;;4.05;0.98;;;;;;;14.97;43.58;94446.50;4997656;28;20456;-89
2023/04/27 05:33:08;;;;;;;3.03;0.93;;;;;;;15.10;42.54;94452.88;4997581;28;20348;-90
2023/04/27 05:35:34;;;;;;;3.53;0.82;;;;;;;15.03;40.04;94455.09;4981707;28;20069;-90
2023/04/27 05:38:00;;;;;;;2.00;0.90;;;;;;;15.65;40.57;94453.09;4981150;28;20340;-89
2023/04/27 05:40:25;;;;;;;2.80;1.13;;;;;;;15.26;39.78;94463.88;4997384;28;20116;-89
2023/04/27 05:42:50;;;;;;;3.85;0.90;;;;;;;15.78;39.98;94457.56;4997467;28;20482;-89
2023/04/27 05:45:16;;;;;;;4.47;0.95;;;;;;;16.09;41.08;94464.06;4981117;28;20060;-90
2023/04/27 05:47:42;;;;;;;3.50;1.13;;;;;;;15.45;39.97;94465.66;4997328;28;20037;-90
2023/04/27 05:50:08;;;;;;;2.30;1.20;;;;;;;16.13;38.83;94462.38;4998612;28;20040;-90
2023/04/27 05:52:33;;;;;;;3.80;0.90;;;;;;;16.45;39.14;94465.09;4980960;28;20132;-90
2023/04/27 05:54:59;;;;;;;4.70;1.25;;;;;;;16.38;39.98;94455.69;5004277;28;20076;-89
2023/04/27 05:57:25;;;;;;;2.15;0.82;;;;;;;16.67;40.40;94459.75;5016614;28;20052;-89
2023/04/27 05:59:51;;;;;;;1.42;0.75;;;;;;;17.00;40.49;94461.34;5000231;28;20124;-87
2023/04/27 06:02:16;;;;;;;2.55;1.00;;;;;;;17.22;39.22;94470.31;5000536;28;20037;-88
2023/04/27 06:04:42;;;;;;;2.38;1.13;;;;;;;17.32;37.84;94471.88;5000457;28;20072;-88
2023/04/27 06:07:08;;;;;;;1.88;1.00;;;;;;;17.53;37.94;94467.56;5000398;28;20436;-88
2023/04/27 06:09:34;;;;;;;1.52;0.90;;;;;;;17.31;39.50;94465.03;5000167;28;20041;-88
2023/04/27 06:12:01;;;;;;;5.22;0.98;;;;;;;17.64;38.79;94467.28;4995893;28;20340;-89
2023/04/27 06:14:27;;;;;;;1.92;1.05;;;;;;;17.72;38.40;94460.44;4980592;28;20064;-88
2023/04/27 06:16:52;;;;;;;1.67;0.80;;;;;;;17.84;38.74;94467.75;4980774;28;20034;-89
2023/04/27 06:19:18;;;;;;;2.47;0.90;;;;;;;17.87;38.80;94469.81;4980549;28;20391;-89
2023/04/27 06:21:43;;;;;;;3.10;0.80;;;;;;;17.91;39.07;94463.53;4980436;28;20053;-89
2023/04/27 06:24:08;;;;;;;2.35;0.85;;;;;;;17.99;38.66;94469.19;4998052;28;20116;-89
2023/04/27 06:26:34;;;;;;;1.70;0.80;;;;;;;18.05;39.02;94474.03;4980443;28;20506;-89
2023/04/27 06:28:59;;;;;;;4.32;1.05;;;;;;;18.00;38.74;94468.84;4997703;28;20034;-88
2023/04/27 06:31:25;;;;;;;3.50;0.90;;;;;;;18.14;39.20;94465.28;4980621;28;20034;-88
2023/04/27 06:33:51;;;;;;;2.25;0.73;;;;;;;18.08;39.24;94473.41;4996518;28;20101;-89
2023/04/27 06:36:16;;;;;;;3.13;1.10;;;;;;;18.13;39.07;94477.00;4997599;28;20035;-89
2023/04/27 06:38:42;;;;;;;2.15;0.90;;;;;;;18.21;38.38;94473.56;4980415;28;20034;-90
2023/04/27 06:41:07;;;;;;;2.15;1.00;;;;;;;17.99;39.80;94466.53;4996242;28;20129;-90
2023/04/27 06:43:33;;;;;;;4.05;1.00;;;;;;;18.32;39.71;94474.03;4997250;28;20034;-89
2023/04/27 06:45:58;;;;;;;1.95;1.27;;;;;;;18.44;40.07;94471.50;4980488;28;20440;-90
2023/04/27 06:48:23;;;;;;;2.40;1.30;;;;;;;18.47;40.50;94476.19;4980028;28;20037;-89
2023/04/27 06:50:49;;;;;;;4.05;0.80;;;;;;;18.43;39.92;94474.47;4996424;28;20449;-89
2023/04/27 06:53:16;;;;;;;1.63;1.00;;;;;;;18.36;40.74;94481.03;4980413;28;20084;-89
2023/04/27 06:55:42;;;;;;;2.42;1.00;;;;;;;18.49;40.74;94479.31;4996296;28;20037;-89
2023/04/27 06:58:07;;;;;;;2.58;0.93;;;;;;;18.91;40.29;94481.41;4979973;28;20030;-89
2023/04/27 07:00:33;;;;;;;2.72;1.23;;;;;;;18.36;39.61;94474.94;4996334;28;20122;-89
2023/04/27 07:02:58;;;;;;;2.53;0.85;;;;;;;18.68;39.79;94485.34;4980243;28;20125;-88
2023/04/27 07:05:24;;;;;;;3.88;0.95;;;;;;;19.01;38.48;94482.97;4980253;28;20030;-88
2023/04/27 07:07:49;;;;;;;5.38;1.08;;;;;;;18.98;37.63;94482.78;4980136;28;20085;-89
2023/04/27 07:10:15;;;;;;;1.60;0.88;;;;;;;19.14;37.90;94486.50;4980220;28;20340;-88
2023/04/27 07:12:41;;;;;;;4.72;1.10;;;;;;;19.49;37.23;94493.53;4996180;28;20036;-89
2023/04/27 07:15:07;;;;;;;3.50;0.80;;;;;;;19.47;36.63;94482.44;4980159;28;20038;-88
2023/04/27 07:17:32;;;;;;;1.98;0.82;;;;;;;19.47;37.78;94485.09;4980044;28;20102;-89
2023/04/27 07:19:58;;;;;;;2.70;0.90;;;;;;;19.49;38.33;94486.34;4995955;28;20042;-89
2023/04/27 07:22:24;;;;;;;4.63;1.00;;;;;;;19.41;36.59;94492.47;4980114;28;20038;-89
2023/04/27 07:24:50;;;;;;;2.75;1.10;;;;;;;19.54;37.48;94490.69;4981225;28;20036;-88
2023/04/27 07:27:16;;;;;;;2.65;1.00;;;;;;;19.84;38.61;94490.66;4983917;28;20069;-89
2023/04/27 07:29:42;;;;;;;2.53;1.17;;;;;;;19.72;39.72;94479.97;4999676;28;20022;-89
2023/04/27 07:32:07;;;;;;;3.15;0.80;;;;;;;20.00;39.35;94482.16;4999862;28;20087;-88
2023/04/27 07:34:33;;;;;;;3.75;1.00;;;;;;;19.79;38.76;94482.88;4983710;28;20079;-89
2023/04/27 07:37:00;;;;;;;2.67;1.38;;;;;;;19.76;39.68;94486.97;4999618;28;20458;-88
2023/04/27 07:39:26;;;;;;;4.25;1.30;;;;;;;20.40;38.00;94478.22;4999615;28;20022;-89
2023/04/27 07:41:51;;;;;;;4.97;1.40;;;;;;;20.09;39.90;94487.41;4999583;28;20033;-88
2023/04/27 07:44:18;;;;;;;2.55;1.40;;;;;;;20.33;39.22;94481.41;4999602;28;20340;-89
2023/04/27 07:46:43;;;;;;;2.22;1.20;;;;;;;20.45;39.27;94480.69;4983288;28;20329;-89
2023/04/27 07:49:09;;;;;;;5.32;1.40;;;;;;;19.86;38.26;94488.47;4982796;28;20022;-89
2023/04/27 07:51:35;;;;;;;3.40;1.45;;;;;;;20.51;39.04;94483.91;4999485;28;20454;-88
2023/04/27 07:54:01;;;;;;;2.78;1.30;;;;;;;20.85;37.33;94482.03;4999449;28;20122;-88
2023/04/27 07:56:26;;;;;;;4.05;1.55;;;;;;;20.56;38.64;94483.72;4999223;28;20033;-88
2023/04/27 07:58:52;;;;;;;4.65;1.42;;;;;;;20.92;37.92;94482.25;5000371;28;20371;-89
2023/04/27 08:01:17;;;;;;;2.25;1.30;;;;;;;20.63;38.80;94482.06;4999312;28;20026;-89
2023/04/27 08:03:43;;;;;;;6.30;1.75;;;;;;;20.83;36.89;94478.94;4999273;28;20030;-89
2023/04/27 08:06:08;;;;;;;2.17;1.38;;;;;;;20.98;38.29;94482.84;4999442;28;20073;-89
2023/04/27 08:08:33;;;;;;;4.00;1.52;;;;;;;21.20;36.97;94484.31;4983017;28;20515;-88
2023/04/27 08:10:59;;;;;;;5.50;1.40;;;;;;;21.20;37.31;94481.63;4999365;28;20026;-89
2023/04/27 08:13:25;;;;;;;6.63;2.22;;;;;;;20.80;34.99;94483.00;4983082;28;20449;-89
2023/04/27 08:15:50;;;;;;;3.00;1.58;;;;;;;21.09;35.30;94488.50;5000125;28;20026;-88
2023/04/27 08:18:16;;;;;;;7.07;2.08;;;;;;;21.26;34.32;94485.66;4998779;28;20125;-89
2023/04/27 08:20:42;;;;;;;4.15;1.67;;;;;;;21.14;35.39;94481.06;4999029;28;20450;-89
2023/04/27 08:23:08;;;;;;;5.47;1.67;;;;;;;21.68;35.30;94483.88;4998959;28;20029;-89
2023/04/27 08:25:35;;;;;;;5.88;1.90;;;;;;;21.55;36.73;94494.53;4998528;28;20030;-89
2023/04/27 08:28:01;;;;;;;5.20;1.75;;;;;;;21.54;37.20;94487.66;4982663;28;20420;-89
2023/04/27 08:30:26;;;;;;;6.18;2.50;;;;;;;21.74;35.33;94493.19;4999906;28;20033;-89
2023/04/27 08:32:53;;;;;;;5.00;2.13;;;;;;;21.80;34.36;94493.75;4998772;28;20026;-89
2023/04/27 08:35:18;;;;;;;5.65;1.90;;;;;;;21.79;36.40;94498.28;4998389;28;20109;-89
2023/04/27 08:37:44;;;;;;;3.08;1.75;;;;;;;21.83;34.60;94496.53;4982509;28;20132;-89
2023/04/27 08:40:10;;;;;;;16.10;2.28;;;;;;;21.30;34.18;94502.53;4998620;28;20052;-89
2023/04/27 08:42:35;;;;;;;4.13;1.73;;;;;;;22.02;34.74;94493.28;4982511;28;20420;-89
2023/04/27 08:45:01;;;;;;;4.18;1.92;;;;;;;22.20;35.18;94498.34;4998565;28;20031;-89
2023/04/27 08:47:26;;;;;;;4.22;2.10;;;;;;;21.08;35.73;94493.06;4998479;28;20049;-89
2023/04/27 08:49:52;;;;;;;4.95;2.38;;;;;;;21.60;35.25;94502.28;4998298;28;20026;-88
2023/04/27 08:52:17;;;;;;;5.13;2.10;;;;;;;21.96;35.17;94493.84;4982385;28;20022;-88
2023/04/27 08:54:43;;;;;;;6.85;2.05;;;;;;;22.17;37.27;94493.69;4998305;28;20022;-89
2023/04/27 08:57:13;;;;;;;3.78;1.60;;;;;;;22.28;37.75;94494.72;4982176;28;20027;-89
2023/04/27 08:59:39;;;;;;;5.70;1.92;;;;;;;22.43;35.94;94498.59;4999295;28;20080;-89
2023/04/27 09:02:05;;;;;;;7.50;1.63;;;;;;;22.78;35.04;94497.22;4998198;28;20395;-90
2023/04/27 09:04:40;;;;;;;4.28;1.80;;;;;;;23.06;34.46;94503.63;4981959;28;20092;-89
2023/04/27 09:07:15;;;;;;;4.32;1.50;;;;;;;23.16;35.12;94503.13;4998077;28;20379;-89
2023/04/27 09:09:41;;;;;;;4.68;1.80;;;;;;;22.82;34.31;94506.09;4981730;28;20034;-88
2023/04/27 09:12:20;;;;;;;7.40;1.58;;;;;;;23.19;32.61;94499.00;4997979;28;20347;-88
2023/04/27 09:15:04;;;;;;;5.05;1.40;;;;;;;23.30;35.30;94503.50;4998032;28;20050;-89
2023/04/27 09:17:29;;;;;;;3.22;1.48;;;;;;;22.77;33.03;94500.22;4997950;28;20034;-89
2023/04/27 09:20:09;;;;;;;7.15;1.70;;;;;;;22.80;35.02;94504.88;4997727;28;20351;-89
2023/04/27 09:22:46;;;;;;;5.03;1.65;;;;;;;22.92;32.54;94494.13;4982342;28;20049;-89
2023/04/27 09:25:28;;;;;;;4.72;1.73;;;;;;;22.45;32.19;94501.69;4997652;28;20031;-88
2023/04/27 09:27:54;;;;;;;5.80;1.88;;;;;;;22.51;34.28;94507.59;4997339;28;20026;-89
2023/04/27 09:30:20;;;;;;;4.15;1.42;;;;;;;22.53;35.18;94496.59;4987135;28;20108;-89
2023/04/27 09:33:02;;;;;;;5.53;1.63;;;;;;;23.09;35.66;94502.94;5009345;28;20066;-89
2023/04/27 09:35:30;;;;;;;3.38;1.60;;;;;;;23.62;35.81;94508.06;5001219;28;20473;-90
2023/04/27 09:37:56;;;;;;;5.30;1.80;;;;;;;23.30;34.19;94497.38;5007525;28;20037;-89
2023/04/27 09:40:29;;;;;;;4.57;1.63;;;;;;;22.95;34.10;94501.47;4997426;28;20026;-90
2023/04/27 09:42:56;;;;;;;3.45;1.67;;;;;;;22.61;35.31;94506.31;4997129;28;20034;-89
2023/04/27 09:45:25;;;;;;;3.42;1.70;;;;;;;22.99;35.09;94502.34;4997124;28;20092;-89
2023/04/27 09:47:51;;;;;;;6.88;2.20;;;;;;;22.50;38.12;94499.91;4996627;28;20061;-89
2023/04/27 09:50:16;;;;;;;4.53;1.92;;;;;;;22.92;37.21;94501.38;4997040;28;20058;-90
2023/04/27 09:52:42;;;;;;;7.85;1.88;;;;;;;22.76;36.02;94499.47;4996895;28;20030;-90
2023/04/27 09:55:14;;;;;;;4.60;2.15;;;;;;;23.37;36.53;94508.25;4980383;28;20121;-90
2023/04/27 09:58:02;;;;;;;9.27;2.58;;;;;;;23.07;37.58;94502.50;4999146;28;20041;-88
2023/04/27 10:00:35;;;;;;;4.55;1.90;;;;;;;22.60;33.99;94502.09;5017567;28;20446;-89
2023/04/27 10:03:13;;;;;;;5.15;2.28;;;;;;;22.91;34.65;94508.63;5016818;28;20037;-89
2023/04/27 10:06:36;;;;;;;5.40;2.30;;;;;;;23.34;36.47;94502.81;5016685;28;20347;-90
2023/04/27 10:09:05;;;;;;;10.23;2.40;;;;;;;23.09;36.56;94497.59;5016406;28;20033;-90
2023/04/27 10:11:43;;;;;;;7.88;1.88;;;;;;;23.33;34.70;94494.03;5016240;28;20104;-89
2023/04/27 10:14:10;;;;;;;7.55;2.40;;;;;;;23.34;35.61;94494.78;5016552;28;20453;-90
2023/04/27 10:16:51;;;;;;;7.03;2.35;;;;;;;23.25;36.09;94493.06;5016179;28;20114;-89
2023/04/27 10:19:16;;;;;;;3.47;1.98;;;;;;;24.02;36.40;94487.50;5017140;28;20040;-89
2023/04/27 10:21:51;;;;;;;8.05;2.35;;;;;;;23.92;35.35;94490.72;5000226;28;20029;-89
2023/04/27 10:24:17;;;;;;;6.93;2.90;;;;;;;23.13;36.63;94485.13;5017305;28;20052;-89
2023/04/27 10:26:50;;;;;;;4.70;2.92;;;;;;;23.76;38.18;94496.13;5000097;28;20026;-89
2023/04/27 10:29:17;;;;;;;6.05;2.95;;;;;;;24.17;37.78;94493.94;5016237;28;20037;-89
2023/04/27 10:31:43;;;;;;;8.57;3.25;;;;;;;23.88;37.47;94497.91;5016449;28;20038;-90
2023/04/27 10:34:10;;;;;;;10.85;3.35;;;;;;;24.66;36.09;94489.91;5015918;28;20034;-89
2023/04/27 10:36:37;;;;;;;5.18;2.50;;;;;;;24.12;36.74;94497.69;5016064;28;20042;-89
2023/04/27 10:39:14;;;;;;;15.57;4.28;;;;;;;24.45;36.24;94492.94;5016474;28;20446;-89
2023/04/27 10:41:54;;;;;;;7.18;3.55;;;;;;;25.17;36.12;94488.13;5016158;28;20025;-89
2023/04/27 10:44:27;;;;;;;13.93;4.18;;;;;;;24.17;37.70;94485.91;5016334;28;20034;-89
2023/04/27 10:46:53;;;;;;;7.93;4.07;;;;;;;24.41;38.20;94484.88;5016092;28;20030;-90
2023/04/27 10:49:19;;;;;;;16.55;4.93;;;;;;;24.61;37.97;94489.44;5015683;28;20041;-89
2023/04/27 10:51:46;;;;;;;8.82;4.93;;;;;;;25.13;37.13;94484.63;5015746;28;20025;-89
2023/04/27 10:54:12;;;;;;;7.65;4.63;;;;;;;24.64;37.00;94486.03;5016180;28;20030;-90
2023/04/27 10:56:37;;;;;;;9.35;4.47;;;;;;;24.40;36.74;94486.00;5015636;28;20030;-89
2023/04/27 10:59:04;;;;;;;14.30;5.18;;;;;;;24.64;37.50;94483.38;5001238;28;20040;-89
2023/04/27 11:01:29;;;;;;;6.60;4.57;;;;;;;24.96;37.68;94478.63;5004163;28;20029;-89
2023/04/27 11:03:58;;;;;;;7.85;4.88;;;;;;;24.60;37.63;94485.97;5020039;28;20033;-90
2023/04/27 11:06:25;;;;;;;13.57;5.03;;;;;;;24.77;38.10;94484.78;5019630;28;20026;-89
2023/04/27 11:08:50;;;;;;;10.68;4.45;;;;;;;25.12;37.28;94483.84;5003705;28;20030;-89
2023/04/27 11:11:16;;;;;;;14.40;4.85;;;;;;;24.18;36.34;94482.13;5003472;28;20030;-90
2023/04/27 11:13:43;;;;;;;8.45;3.75;;;;;;;24.88;34.30;94474.25;5003506;28;20029;-90
2023/04/27 11:16:08;;;;;;;9.73;4.32;;;;;;;24.93;35.26;94476.63;5020607;28;20036;-89
2023/04/27 11:18:36;;;;;;;9.68;4.85;;;;;;;24.71;34.76;94472.78;5019667;28;20132;-89
2023/04/27 11:21:10;;;;;;;9.20;3.83;;;;;;;25.20;36.23;94474.00;5019733;28;20033;-89
2023/04/27 11:23:38;;;;;;;;;;;;;;;25.12;34.34;94475.78;5020151;28;20066;-90
2023/04/27 11:26:20;;;;;;;9.10;4.40;;;;;;;24.17;36.16;94482.47;5019271;28;20315;-89
2023/04/27 11:28:58;;;;;;;7.75;4.43;;;;;;;24.42;35.74;94473.03;5019467;28;20072;-89
2023/04/27 11:31:25;;;;;;;9.73;5.20;;;;;;;24.27;35.59;94484.59;5020705;28;20351;-89
2023/04/27 11:33:53;;;;;;;9.32;4.90;;;;;;;24.91;35.18;94484.25;5019176;28;20030;-89